| time (UTC) | temp F | wind direction | speed MPH | gust MPH | rain 1hr in | rain 24hr in | rain mn in | humidity % | barometer mb |
| 20260906234542 | 80 | 0 | 0.0 | 0.0 | 0.00 | 0.03 | 0.03 | 83 | 1013.1 |
| 20260906233043 | 79 | 0 | 0.0 | 0.0 | 0.00 | 0.03 | 0.03 | 84 | 1013.4 |
| 20260906231546 | 79 | 0 | 0.0 | 0.0 | 0.00 | 0.03 | 0.03 | 84 | 1013.5 |
| 20260906230043 | 79 | 0 | 0.0 | 0.0 | 0.00 | 0.03 | 0.03 | 83 | 1013.4 |
| 20260906224548 | 79 | 0 | 0.0 | 0.0 | 0.00 | 0.03 | 0.03 | 86 | 1013.6 |
| 20260906223053 | 78 | 0 | 0.0 | 3.0 | 0.00 | 0.03 | 0.03 | 87 | 1013.7 |
| 20260906221557 | 77 | 323 | 2.0 | 4.0 | 0.02 | 0.03 | 0.03 | 87 | 1014.1 |
| 20260906220043 | 76 | 0 | 0.0 | 3.0 | 0.03 | 0.03 | 0.03 | 89 | 1014.4 |
| 20260906214541 | 75 | 5 | 1.0 | 4.0 | 0.03 | 0.04 | 0.03 | 89 | 1014.3 |
| 20260906213100 | 75 | 13 | 3.0 | 8.0 | 0.03 | 0.04 | 0.03 | 90 | 1014.4 |
| 20260906211551 | 75 | 31 | 4.0 | 13.0 | 0.01 | 0.02 | 0.01 | 89 | 1014.5 |
| 20260906210040 | 76 | 27 | 3.0 | 7.0 | 0.00 | 0.01 | 0.00 | 85 | 1014.7 |
| 20260906204600 | 78 | 9 | 7.0 | 14.0 | 0.00 | 0.01 | 0.00 | 81 | 1014.4 |
| 20260906203044 | 83 | 75 | 7.0 | 13.0 | 0.00 | 0.01 | 0.00 | 69 | 1014.6 |
| 20260906201601 | 91 | 44 | 2.0 | 8.0 | 0.00 | 0.01 | 0.00 | 51 | 1014.3 |
| 20260906200047 | 93 | 0 | 4.0 | 14.0 | 0.00 | 0.01 | 0.00 | 52 | 1014.1 |
| 20260906194541 | 91 | 141 | 2.0 | 8.0 | 0.00 | 0.01 | 0.00 | 52 | 1014.1 |
| 20260906193042 | 93 | 155 | 4.0 | 13.0 | 0.00 | 0.01 | 0.00 | 48 | 1014.3 |
| 20260906191539 | 93 | 171 | 3.0 | 15.0 | 0.00 | 0.01 | 0.00 | 48 | 1014.4 |
| 20260906190046 | 93 | 168 | 6.0 | 11.0 | 0.00 | 0.01 | 0.00 | 47 | 1014.6 |
| 20260906184555 | 89 | 0 | 1.0 | 9.0 | 0.00 | 0.01 | 0.00 | 56 | 1014.9 |
| 20260906183049 | 91 | 0 | 1.0 | 14.0 | 0.00 | 0.01 | 0.00 | 54 | 1015.1 |
| 20260906181550 | 92 | 248 | 2.0 | 9.0 | 0.00 | 0.01 | 0.00 | 47 | 1015.4 |
| 20260906180059 | 91 | 153 | 6.0 | 12.0 | 0.00 | 0.01 | 0.00 | 53 | 1015.7 |
| 20260906174553 | 90 | 119 | 1.0 | 9.0 | 0.00 | 0.01 | 0.00 | 57 | 1015.9 |
| 20260906173041 | 90 | 175 | 1.0 | 11.0 | 0.00 | 0.01 | 0.00 | 58 | 1016.1 |
| 20260906171541 | 89 | 182 | 4.0 | 11.0 | 0.00 | 0.01 | 0.00 | 58 | 1016.2 |
| 20260906170054 | 88 | 128 | 3.0 | 8.0 | 0.00 | 0.01 | 0.00 | 60 | 1016.3 |
| 20260906164541 | 87 | 130 | 4.0 | 10.0 | 0.00 | 0.01 | 0.00 | 64 | 1016.5 |
| 20260906163048 | 85 | 177 | 3.0 | 10.0 | 0.00 | 0.01 | 0.00 | 66 | 1016.5 |
| 20260906161547 | 84 | 153 | 1.0 | 6.0 | 0.00 | 0.01 | 0.00 | 69 | 1016.5 |
| 20260906160044 | 85 | 184 | 3.0 | 10.0 | 0.00 | 0.01 | 0.00 | 67 | 1016.4 |
| 20260906154541 | 83 | 150 | 2.0 | 10.0 | 0.00 | 0.01 | 0.00 | 70 | 1016.3 |
| 20260906153041 | 83 | 135 | 1.0 | 7.0 | 0.00 | 0.01 | 0.00 | 71 | 1016.1 |
| 20260906151544 | 82 | 161 | 3.0 | 7.0 | 0.00 | 0.01 | 0.00 | 73 | 1016.2 |
| 20260906150042 | 81 | 148 | 1.0 | 7.0 | 0.00 | 0.01 | 0.00 | 76 | 1016.1 |
| 20260906144540 | 80 | 171 | 3.0 | 8.0 | 0.00 | 0.01 | 0.00 | 78 | 1016.0 |
| 20260906143040 | 79 | 117 | 3.0 | 8.0 | 0.00 | 0.01 | 0.00 | 79 | 1016.0 |
| 20260906141540 | 78 | 171 | 2.0 | 10.0 | 0.00 | 0.01 | 0.00 | 81 | 1016.1 |
| 20260906140041 | 77 | 163 | 2.0 | 9.0 | 0.00 | 0.01 | 0.00 | 84 | 1015.8 |
| 20260906134540 | 76 | 159 | 4.0 | 7.0 | 0.00 | 0.01 | 0.00 | 86 | 1015.8 |
| 20260906133041 | 75 | 160 | 1.0 | 3.0 | 0.00 | 0.01 | 0.00 | 87 | 1015.6 |
| 20260906131544 | 74 | 0 | 0.0 | 0.0 | 0.00 | 0.01 | 0.00 | 87 | 1015.5 |
| 20260906130041 | 72 | 0 | 0.0 | 0.0 | 0.00 | 0.01 | 0.00 | 90 | 1015.3 |
| 20260906124543 | 70 | 0 | 0.0 | 0.0 | 0.00 | 0.01 | 0.00 | 91 | 1014.9 |
| 20260906123039 | 70 | 0 | 0.0 | 0.0 | 0.00 | 0.01 | 0.00 | 91 | 1014.9 |
| 20260906121538 | 70 | 0 | 0.0 | 0.0 | 0.00 | 0.01 | 0.00 | 90 | 1014.6 |
| 20260906120047 | 70 | 0 | 0.0 | 0.0 | 0.00 | 0.01 | 0.00 | 91 | 1014.5 |
| 20260906114542 | 70 | 0 | 0.0 | 0.0 | 0.00 | 0.01 | 0.00 | 91 | 1014.4 |
| 20260906113047 | 70 | 0 | 0.0 | 0.0 | 0.00 | 0.01 | 0.00 | 91 | 1014.2 |
| 20260906111547 | 70 | 0 | 0.0 | 0.0 | 0.00 | 0.01 | 0.00 | 91 | 1014.2 |
| 20260906110041 | 69 | 0 | 0.0 | 0.0 | 0.00 | 0.01 | 0.00 | 91 | 1014.0 |
| 20260906104543 | 69 | 0 | 0.0 | 0.0 | 0.00 | 0.01 | 0.00 | 90 | 1013.7 |
| 20260906103043 | 69 | 0 | 0.0 | 0.0 | 0.00 | 0.01 | 0.00 | 91 | 1013.8 |
| 20260906101540 | 70 | 0 | 0.0 | 0.0 | 0.00 | 0.01 | 0.00 | 89 | 1013.7 |
| 20260906100040 | 70 | 0 | 0.0 | 0.0 | 0.00 | 0.01 | 0.00 | 89 | 1013.7 |
| 20260906094543 | 70 | 0 | 0.0 | 0.0 | 0.00 | 0.01 | 0.00 | 88 | 1013.8 |
| 20260906093041 | 71 | 0 | 0.0 | 0.0 | 0.00 | 0.01 | 0.00 | 88 | 1013.9 |
| 20260906091540 | 72 | 0 | 0.0 | 0.0 | 0.00 | 0.01 | 0.00 | 86 | 1013.7 |
| 20260906090039 | 74 | 0 | 0.0 | 0.0 | 0.00 | 0.01 | 0.00 | 82 | 1013.8 |
| 20260906084549 | 75 | 0 | 0.0 | 3.0 | 0.00 | 0.01 | 0.00 | 81 | 1013.8 |
| 20260906083041 | 75 | 182 | 1.0 | 4.0 | 0.00 | 0.01 | 0.00 | 80 | 1014.0 |
| 20260906081540 | 76 | 159 | 2.0 | 5.0 | 0.00 | 0.01 | 0.00 | 79 | 1014.0 |
| 20260906080040 | 77 | 155 | 1.0 | 7.0 | 0.00 | 0.01 | 0.00 | 78 | 1014.2 |
| 20260906074542 | 77 | 170 | 3.0 | 10.0 | 0.00 | 0.01 | 0.00 | 77 | 1014.2 |
| 20260906073043 | 77 | 143 | 4.0 | 7.0 | 0.00 | 0.01 | 0.00 | 76 | 1014.5 |
| 20260906071555 | 78 | 168 | 4.0 | 11.0 | 0.00 | 0.01 | 0.00 | 75 | 1014.5 |
| 20260906070040 | 78 | 155 | 6.0 | 12.0 | 0.00 | 0.01 | 0.00 | 74 | 1014.8 |
| 20260906064541 | 79 | 150 | 6.0 | 13.0 | 0.00 | 0.01 | 0.00 | 73 | 1014.8 |
| 20260906063041 | 79 | 154 | 5.0 | 12.0 | 0.00 | 0.01 | 0.00 | 73 | 1014.7 |
| 20260906061542 | 79 | 151 | 4.0 | 6.0 | 0.00 | 0.01 | 0.00 | 74 | 1015.1 |
| 20260906060040 | 80 | 161 | 4.0 | 9.0 | 0.00 | 0.01 | 0.00 | 72 | 1015.2 |
| 20260906054541 | 80 | 144 | 5.0 | 10.0 | 0.00 | 0.01 | 0.00 | 72 | 1015.1 |
| 20260906053050 | 80 | 118 | 6.0 | 12.0 | 0.00 | 0.01 | 0.00 | 71 | 1015.0 |
| 20260906051540 | 80 | 138 | 4.0 | 11.0 | 0.00 | 0.01 | 0.00 | 72 | 1015.1 |
| 20260906050046 | 80 | 148 | 4.0 | 9.0 | 0.00 | 0.01 | 0.00 | 69 | 1015.1 |
| 20260906044543 | 81 | 158 | 3.0 | 8.0 | 0.00 | 0.01 | 0.01 | 68 | 1015.2 |
| 20260906043040 | 82 | 165 | 4.0 | 10.0 | 0.00 | 0.01 | 0.01 | 67 | 1015.3 |
| 20260906041540 | 81 | 151 | 5.0 | 11.0 | 0.00 | 0.01 | 0.01 | 67 | 1015.2 |
| 20260906040040 | 75 | 0 | 0.0 | 0.0 | 0.00 | 0.01 | 0.01 | 80 | 1015.0 |
| 20260906034546 | 74 | 0 | 0.0 | 0.0 | 0.00 | 0.01 | 0.01 | 81 | 1014.6 |
| 20260906033040 | 74 | 0 | 0.0 | 0.0 | 0.00 | 0.01 | 0.01 | 80 | 1014.4 |
| 20260906031539 | 75 | 0 | 0.0 | 0.0 | 0.00 | 0.01 | 0.01 | 80 | 1014.2 |
| 20260906030043 | 75 | 0 | 0.0 | 0.0 | 0.00 | 0.01 | 0.01 | 79 | 1014.0 |
| 20260906024559 | 75 | 0 | 0.0 | 0.0 | 0.00 | 0.01 | 0.01 | 79 | 1013.8 |
| 20260906023041 | 76 | 0 | 0.0 | 0.0 | 0.00 | 0.01 | 0.01 | 77 | 1013.5 |
| 20260906021546 | 77 | 0 | 0.0 | 0.0 | 0.00 | 0.01 | 0.01 | 77 | 1013.2 |
| 20260906020048 | 78 | 0 | 0.0 | 0.0 | 0.00 | 0.01 | 0.01 | 74 | 1013.0 |
| 20260906014601 | 79 | 0 | 0.0 | 0.0 | 0.00 | 0.01 | 0.01 | 74 | 1013.0 |
| 20260906013047 | 80 | 0 | 0.0 | 0.0 | 0.00 | 0.01 | 0.01 | 72 | 1012.8 |
| 20260906011548 | 82 | 0 | 0.0 | 0.0 | 0.00 | 0.01 | 0.01 | 67 | 1012.6 |
| 20260906010048 | 84 | 0 | 0.0 | 0.0 | 0.00 | 0.01 | 0.01 | 64 | 1012.5 |
| 20260906004545 | 86 | 0 | 0.0 | 0.0 | 0.00 | 0.01 | 0.01 | 60 | 1012.4 |
| 20260906003050 | 88 | 0 | 0.0 | 2.0 | 0.00 | 0.01 | 0.01 | 58 | 1012.6 |
| 20260906001549 | 89 | 0 | 0.0 | 1.0 | 0.00 | 0.01 | 0.01 | 56 | 1012.4 |
| 20260906000051 | 90 | 0 | 0.0 | 6.0 | 0.00 | 0.01 | 0.01 | 54 | 1012.1 |